SBI5019 UNNT-USSS
Flight info
| Callsign | SBI5019 |
|---|---|
| Flight time | N/A |
| Altitude | 36000 |
| Route | OGAMA A308 ML A300 RUBOR T448 SOPUS P135 BEGMA |
| Aircraft | A320/M-SDE2E3FGHIRWXY/LB1 |
Departure
| Time | N/A |
|---|---|
| Airport | Novosibirsk Tolmachevo Airport (UNNT) |
Arrival
| Time | 2026-05-05 08:02 |
|---|---|
| Airport | Koltsovo Airport (USSS) |
| Time | Latitude | Longitude | Altitude | Speed | Heading |
|---|---|---|---|---|---|
| 2026-05-05 07:46 | 57.13281 | 62.71735 | 23590 ft | 421 kts | 272° |
| 2026-05-05 07:46 | 57.13320 | 62.66374 | 22891 ft | 418 kts | 272° |
| 2026-05-05 07:46 | 57.13354 | 62.61045 | 22321 ft | 413 kts | 272° |
| 2026-05-05 07:46 | 57.13384 | 62.55796 | 21759 ft | 408 kts | 272° |
| 2026-05-05 07:47 | 57.13408 | 62.50595 | 21242 ft | 403 kts | 272° |
| 2026-05-05 07:47 | 57.13428 | 62.45460 | 20720 ft | 399 kts | 272° |
| 2026-05-05 07:47 | 57.13447 | 62.40367 | 20225 ft | 396 kts | 272° |
| 2026-05-05 07:47 | 57.13466 | 62.35301 | 19425 ft | 399 kts | 272° |
| 2026-05-05 07:48 | 57.13483 | 62.30153 | 18680 ft | 403 kts | 272° |
| 2026-05-05 07:48 | 57.13494 | 62.25014 | 18174 ft | 399 kts | 272° |
| 2026-05-05 07:48 | 57.13502 | 62.19925 | 17611 ft | 396 kts | 272° |
| 2026-05-05 07:48 | 57.13510 | 62.14890 | 17084 ft | 391 kts | 272° |
| 2026-05-05 07:49 | 57.13516 | 62.09899 | 16553 ft | 387 kts | 272° |
| 2026-05-05 07:49 | 57.13521 | 62.05038 | 16025 ft | 383 kts | 272° |
| 2026-05-05 07:49 | 57.13414 | 62.00144 | 15483 ft | 383 kts | 264° |
| 2026-05-05 07:49 | 57.12854 | 61.95359 | 14936 ft | 382 kts | 257° |
| 2026-05-05 07:50 | 57.12178 | 61.90653 | 14390 ft | 379 kts | 257° |
| 2026-05-05 07:50 | 57.11505 | 61.85975 | 13830 ft | 377 kts | 257° |
| 2026-05-05 07:50 | 57.10835 | 61.81333 | 13236 ft | 374 kts | 257° |
| 2026-05-05 07:50 | 57.10174 | 61.76741 | 12689 ft | 370 kts | 257° |
| 2026-05-05 07:51 | 57.09519 | 61.72193 | 12106 ft | 366 kts | 257° |
| 2026-05-05 07:51 | 57.08868 | 61.67688 | 11562 ft | 362 kts | 257° |
| 2026-05-05 07:51 | 57.08221 | 61.63221 | 10987 ft | 360 kts | 256° |
| 2026-05-05 07:51 | 57.07587 | 61.58858 | 10503 ft | 354 kts | 256° |
| 2026-05-05 07:52 | 57.06962 | 61.54580 | 10375 ft | 338 kts | 256° |
| 2026-05-05 07:52 | 57.06360 | 61.50481 | 10246 ft | 325 kts | 256° |
| 2026-05-05 07:52 | 57.05781 | 61.46549 | 10127 ft | 312 kts | 256° |
| 2026-05-05 07:52 | 57.05226 | 61.42768 | 9994 ft | 300 kts | 256° |
| 2026-05-05 07:53 | 57.04638 | 61.39151 | 9833 ft | 292 kts | 249° |
| 2026-05-05 07:53 | 57.03661 | 61.35933 | 9630 ft | 285 kts | 234° |
| 2026-05-05 07:53 | 57.02360 | 61.33244 | 9507 ft | 276 kts | 228° |
| 2026-05-05 07:53 | 57.01075 | 61.30724 | 9348 ft | 266 kts | 229° |
| 2026-05-05 07:54 | 56.99848 | 61.28304 | 9156 ft | 260 kts | 229° |
| 2026-05-05 07:54 | 56.98628 | 61.25889 | 8865 ft | 257 kts | 229° |
| 2026-05-05 07:54 | 56.97415 | 61.23493 | 8536 ft | 256 kts | 229° |
| 2026-05-05 07:54 | 56.96206 | 61.21108 | 8185 ft | 255 kts | 229° |
| 2026-05-05 07:55 | 56.94977 | 61.18776 | 7846 ft | 254 kts | 223° |
| 2026-05-05 07:55 | 56.93515 | 61.16942 | 7517 ft | 255 kts | 208° |
| 2026-05-05 07:55 | 56.91850 | 61.15815 | 7173 ft | 256 kts | 195° |
| 2026-05-05 07:55 | 56.90114 | 61.15085 | 6842 ft | 255 kts | 194° |
| 2026-05-05 07:56 | 56.88387 | 61.14354 | 6526 ft | 255 kts | 195° |
| 2026-05-05 07:56 | 56.86663 | 61.13623 | 6186 ft | 254 kts | 195° |
| 2026-05-05 07:56 | 56.84953 | 61.12904 | 5689 ft | 251 kts | 192° |
| 2026-05-05 07:56 | 56.83220 | 61.12629 | 5204 ft | 249 kts | 181° |
| 2026-05-05 07:57 | 56.81517 | 61.12620 | 4641 ft | 246 kts | 181° |
| 2026-05-05 07:57 | 56.79808 | 61.12610 | 4102 ft | 243 kts | 181° |
| 2026-05-05 07:57 | 56.78167 | 61.12602 | 3888 ft | 228 kts | 181° |
| 2026-05-05 07:57 | 56.76631 | 61.12588 | 3751 ft | 215 kts | 184° |
| 2026-05-05 07:58 | 56.75258 | 61.11810 | 3645 ft | 203 kts | 221° |
| 2026-05-05 07:58 | 56.74470 | 61.09815 | 3501 ft | 194 kts | 257° |
| 2026-05-05 07:58 | 56.74373 | 61.07411 | 3339 ft | 189 kts | 272° |
| 2026-05-05 07:58 | 56.74388 | 61.05048 | 3087 ft | 179 kts | 272° |
| 2026-05-05 07:59 | 56.74400 | 61.02859 | 2917 ft | 168 kts | 272° |
| 2026-05-05 07:59 | 56.74409 | 61.00751 | 2825 ft | 165 kts | 272° |
| 2026-05-05 07:59 | 56.74418 | 60.98667 | 2662 ft | 164 kts | 272° |
| 2026-05-05 07:59 | 56.74426 | 60.96623 | 2442 ft | 160 kts | 272° |
| 2026-05-05 08:00 | 56.74434 | 60.94630 | 2221 ft | 157 kts | 272° |
| 2026-05-05 08:00 | 56.74440 | 60.92715 | 1997 ft | 147 kts | 272° |
| 2026-05-05 08:00 | 56.74445 | 60.90889 | 1784 ft | 139 kts | 273° |
| 2026-05-05 08:00 | 56.74449 | 60.89348 | 1598 ft | 139 kts | 273° |
| 2026-05-05 08:01 | 56.74457 | 60.87588 | 1369 ft | 138 kts | 272° |
| 2026-05-05 08:01 | 56.74465 | 60.85840 | 1166 ft | 138 kts | 271° |
| 2026-05-05 08:01 | 56.74471 | 60.84086 | 966 ft | 138 kts | 271° |
| 2026-05-05 08:01 | 56.74469 | 60.82329 | 800 ft | 138 kts | 272° |
| 2026-05-05 08:02 | 56.74479 | 60.80748 | 777 ft | 104 kts | 270° |
| 2026-05-05 08:02 | 56.74480 | 60.79819 | 776 ft | 50 kts | 269° |
| 2026-05-05 08:02 | 56.74477 | 60.79329 | 774 ft | 25 kts | 258° |
| 2026-05-05 08:02 | 56.74542 | 60.79186 | 775 ft | 16 kts | 2° |
| 2026-05-05 08:03 | 56.74645 | 60.79190 | 778 ft | 13 kts | 1° |
| 2026-05-05 08:03 | 56.74741 | 60.79186 | 778 ft | 15 kts | 360° |
| 2026-05-05 08:03 | 56.74829 | 60.79192 | 778 ft | 12 kts | 11° |
| 2026-05-05 08:03 | 56.74858 | 60.79290 | 778 ft | 9 kts | 90° |
| 2026-05-05 08:04 | 56.74857 | 60.79395 | 778 ft | 8 kts | 90° |
| 2026-05-05 08:04 | 56.74857 | 60.79497 | 778 ft | 8 kts | 89° |
| 2026-05-05 08:04 | 56.74857 | 60.79596 | 778 ft | 7 kts | 89° |
| 2026-05-05 08:04 | 56.74857 | 60.79685 | 778 ft | 8 kts | 91° |
| 2026-05-05 08:05 | 56.74855 | 60.79814 | 778 ft | 10 kts | 91° |
| 2026-05-05 08:05 | 56.74853 | 60.79908 | 778 ft | 3 kts | 91° |
| 2026-05-05 08:05 | 56.74865 | 60.79938 | 778 ft | 5 kts | 33° |
| 2026-05-05 08:05 | 56.74895 | 60.79946 | 778 ft | 4 kts | 1° |
| 2026-05-05 08:06 | 56.74917 | 60.79946 | 778 ft | 3 kts | 358° |
| 2026-05-05 08:06 | 56.74930 | 60.79944 | 778 ft | 0 kts | 359° |